Time;durP1;ratioP1;P1;durP2;ratioP2;P2;SDS_P1;SDS_P2;PMS_P1;PMS_P2;Temp;Humidity;BMP_temperature;BMP_pressure;BME280_temperature;BME280_humidity;BME280_pressure;Samples;Min_cycle;Max_cycle;Signal;HPM_P1;HPM_P2
2022/04/02 00:01:14;;;;;;;1.90;0.50;;;;;;;;;;5054076;28;20048;-65
2022/04/02 00:03:41;;;;;;;8.35;1.02;;;;;;;;;;5052062;28;20068;-65
2022/04/02 00:06:07;;;;;;;1.23;0.60;;;;;;;;;;5053754;28;20045;-66
2022/04/02 00:08:36;;;;;;;1.48;0.57;;;;;;;;;;5056266;28;20128;-64
2022/04/02 00:11:03;;;;;;;3.08;0.65;;;;;;;;;;5051616;28;20056;-66
2022/04/02 00:13:31;;;;;;;2.40;0.80;;;;;;;;;;5033743;28;20048;-66
2022/04/02 00:15:58;;;;;;;5.22;0.70;;;;;;;;;;5067177;28;20108;-66
2022/04/02 00:18:24;;;;;;;2.15;0.70;;;;;;;;;;5053114;28;20059;-67
2022/04/02 00:20:50;;;;;;;3.80;0.70;;;;;;;;;;5071460;28;20033;-66
2022/04/02 00:26:02;;;;;;;8.20;1.10;;;;;;;;;;5053541;28;20573;-65
2022/04/02 00:28:28;;;;;;;20.50;1.60;;;;;;;;;;5061298;28;20044;-65
2022/04/02 00:30:54;;;;;;;14.93;1.52;;;;;;;;;;5050140;28;20021;-67
2022/04/02 00:33:20;;;;;;;8.82;1.20;;;;;;;;;;5059529;28;20038;-67
2022/04/02 00:35:46;;;;;;;6.13;1.60;;;;;;;;;;5053997;28;20039;-65
2022/04/02 00:38:12;;;;;;;8.68;1.05;;;;;;;;;;5065176;28;20036;-65
2022/04/02 00:40:42;;;;;;;15.65;0.98;;;;;;;;;;5051524;28;20025;-65
2022/04/02 00:43:08;;;;;;;7.55;0.90;;;;;;;;;;5065835;28;20021;-66
2022/04/02 00:45:34;;;;;;;3.90;1.10;;;;;;;;;;5052517;28;20451;-65
2022/04/02 00:48:00;;;;;;;5.68;0.88;;;;;;;;;;5062100;28;20108;-65
2022/04/02 00:50:27;;;;;;;3.13;0.60;;;;;;;;;;5046958;28;20033;-66
2022/04/02 00:52:53;;;;;;;8.82;1.25;;;;;;;;;;5029673;28;20032;-64
2022/04/02 00:55:19;;;;;;;11.38;0.90;;;;;;;;;;5037001;28;20036;-66
2022/04/02 00:57:45;;;;;;;4.65;0.80;;;;;;;;;;5054684;28;20031;-65
2022/04/02 01:00:13;;;;;;;5.05;0.77;;;;;;;;;;5050978;28;20111;-66
2022/04/02 01:02:39;;;;;;;7.57;0.93;;;;;;;;;;5062805;28;20458;-65
2022/04/02 01:05:05;;;;;;;6.35;1.05;;;;;;;;;;5052730;28;20095;-66
2022/04/02 01:07:31;;;;;;;7.25;0.98;;;;;;;;;;5070642;28;20475;-67
2022/04/02 01:09:57;;;;;;;4.22;0.60;;;;;;;;;;5070729;28;20033;-66
2022/04/02 01:12:26;;;;;;;4.50;0.70;;;;;;;;;;5067004;28;20428;-66
2022/04/02 01:14:52;;;;;;;4.50;0.60;;;;;;;;;;5053374;28;20043;-66
2022/04/02 01:17:18;;;;;;;0.90;0.60;;;;;;;;;;5063005;28;20525;-67
2022/04/02 01:19:44;;;;;;;4.35;1.02;;;;;;;;;;5056667;28;20024;-67
2022/04/02 01:22:10;;;;;;;16.00;0.70;;;;;;;;;;5055112;28;20033;-67
2022/04/02 01:24:36;;;;;;;2.90;0.65;;;;;;;;;;5052313;28;20029;-67
2022/04/02 01:27:02;;;;;;;6.35;0.98;;;;;;;;;;5050706;28;20017;-66
2022/04/02 01:29:35;;;;;;;4.03;0.70;;;;;;;;;;5055027;28;20032;-67
2022/04/02 01:32:01;;;;;;;2.20;0.70;;;;;;;;;;5032681;28;20025;-66
2022/04/02 01:34:31;;;;;;;4.78;0.52;;;;;;;;;;5053102;28;20099;-68
2022/04/02 01:36:57;;;;;;;2.33;0.80;;;;;;;;;;5068238;28;20051;-68
2022/04/02 01:39:23;;;;;;;5.90;0.70;;;;;;;;;;5059097;28;20064;-67
2022/04/02 01:41:49;;;;;;;1.23;0.70;;;;;;;;;;5053636;28;20029;-67
2022/04/02 01:44:15;;;;;;;13.60;0.70;;;;;;;;;;5056805;28;20033;-66
2022/04/02 01:46:41;;;;;;;3.22;0.57;;;;;;;;;;5057748;28;20033;-67
2022/04/02 01:49:07;;;;;;;8.65;0.80;;;;;;;;;;5057251;28;20037;-68
2022/04/02 01:51:33;;;;;;;1.23;0.50;;;;;;;;;;5038468;28;20059;-66
2022/04/02 01:53:59;;;;;;;5.20;0.70;;;;;;;;;;5049690;28;20477;-67
2022/04/02 01:56:25;;;;;;;2.08;0.60;;;;;;;;;;5053001;28;20067;-66
2022/04/02 01:58:51;;;;;;;2.78;0.57;;;;;;;;;;5051271;28;20032;-67
2022/04/02 02:01:17;;;;;;;2.22;0.63;;;;;;;;;;5050141;28;20021;-67
2022/04/02 02:03:44;;;;;;;4.30;0.80;;;;;;;;;;5053957;28;20040;-67
2022/04/02 02:06:11;;;;;;;6.07;0.75;;;;;;;;;;5061908;28;20068;-67
2022/04/02 02:08:38;;;;;;;2.08;0.57;;;;;;;;;;5052729;28;20091;-67
2022/04/02 02:11:04;;;;;;;9.25;0.60;;;;;;;;;;5060228;28;20585;-68
2022/04/02 02:13:30;;;;;;;2.53;0.70;;;;;;;;;;5065754;28;20050;-66
2022/04/02 02:15:56;;;;;;;2.88;1.02;;;;;;;;;;5032012;28;20046;-65
2022/04/02 02:18:22;;;;;;;2.33;0.68;;;;;;;;;;5046443;28;20712;-66
2022/04/02 02:20:48;;;;;;;4.22;0.70;;;;;;;;;;5055954;28;20108;-64
2022/04/02 02:23:14;;;;;;;1.58;0.63;;;;;;;;;;5059400;28;20037;-65
2022/04/02 02:25:40;;;;;;;2.30;0.60;;;;;;;;;;5049964;28;20044;-67
2022/04/02 02:28:06;;;;;;;2.17;0.50;;;;;;;;;;5056753;28;20027;-66
2022/04/02 02:30:32;;;;;;;2.75;0.57;;;;;;;;;;5049784;28;20377;-66
2022/04/02 02:35:49;;;;;;;2.42;0.80;;;;;;;;;;5070139;28;20094;-67
2022/04/02 02:38:15;;;;;;;4.33;0.50;;;;;;;;;;5049549;28;20096;-65
2022/04/02 02:40:42;;;;;;;3.22;0.60;;;;;;;;;;5031551;28;20412;-67
2022/04/02 02:43:08;;;;;;;1.13;0.50;;;;;;;;;;5041077;28;20361;-64
2022/04/02 02:45:35;;;;;;;3.90;0.70;;;;;;;;;;5069715;28;20036;-65
2022/04/02 02:48:06;;;;;;;3.90;0.73;;;;;;;;;;5051616;28;20379;-64
2022/04/02 02:50:32;;;;;;;5.80;0.90;;;;;;;;;;5043910;28;20795;-66
2022/04/02 02:52:58;;;;;;;1.23;0.68;;;;;;;;;;5059979;28;20028;-65
2022/04/02 02:55:25;;;;;;;1.33;0.50;;;;;;;;;;5057598;28;20127;-64
2022/04/02 02:57:51;;;;;;;2.03;0.50;;;;;;;;;;5050095;28;20017;-66
2022/04/02 03:00:19;;;;;;;5.78;0.70;;;;;;;;;;5049682;28;20021;-67
2022/04/02 03:02:45;;;;;;;3.85;1.10;;;;;;;;;;5060527;28;20017;-67
2022/04/02 03:05:12;;;;;;;3.08;0.50;;;;;;;;;;5065200;28;20055;-66
2022/04/02 03:07:39;;;;;;;2.97;0.60;;;;;;;;;;5055363;28;20039;-66
2022/04/02 03:10:05;;;;;;;4.50;0.75;;;;;;;;;;5055114;28;20033;-66
2022/04/02 03:12:32;;;;;;;2.08;0.50;;;;;;;;;;5062704;28;20033;-65
2022/04/02 03:14:59;;;;;;;0.95;0.50;;;;;;;;;;5061881;28;20032;-66
2022/04/02 03:17:25;;;;;;;3.80;0.60;;;;;;;;;;5067192;28;20013;-66
2022/04/02 03:19:51;;;;;;;2.33;0.52;;;;;;;;;;5066297;28;20033;-66
2022/04/02 03:22:18;;;;;;;2.58;0.60;;;;;;;;;;5038386;28;20499;-67
2022/04/02 03:24:43;;;;;;;2.05;0.60;;;;;;;;;;5072550;28;20064;-66
2022/04/02 03:27:10;;;;;;;4.53;0.50;;;;;;;;;;5064539;28;20052;-66
2022/04/02 03:29:36;;;;;;;4.28;0.60;;;;;;;;;;5060473;28;20025;-65
2022/04/02 03:32:02;;;;;;;2.53;0.60;;;;;;;;;;5052374;28;20040;-65
2022/04/02 03:34:29;;;;;;;3.85;0.60;;;;;;;;;;5052653;28;20075;-64
2022/04/02 03:36:55;;;;;;;2.45;0.55;;;;;;;;;;5059547;28;20021;-64
2022/04/02 03:39:21;;;;;;;3.50;0.50;;;;;;;;;;5058460;28;20024;-65
2022/04/02 03:41:47;;;;;;;1.70;0.50;;;;;;;;;;5052129;28;20464;-64
2022/04/02 03:44:13;;;;;;;1.73;0.47;;;;;;;;;;5066391;28;20085;-66
2022/04/02 03:49:25;;;;;;;2.17;0.70;;;;;;;;;;5052488;28;20077;-67
2022/04/02 03:51:51;;;;;;;2.63;0.50;;;;;;;;;;5058800;28;20112;-65
2022/04/02 03:54:18;;;;;;;3.95;0.50;;;;;;;;;;5051961;28;20378;-65
2022/04/02 03:56:44;;;;;;;2.75;0.70;;;;;;;;;;5059978;28;20791;-64
2022/04/02 03:59:11;;;;;;;4.40;0.57;;;;;;;;;;5058162;28;20107;-64
2022/04/02 04:01:38;;;;;;;3.08;0.57;;;;;;;;;;5065198;28;20012;-65
2022/04/02 04:04:04;;;;;;;1.65;0.50;;;;;;;;;;5054529;28;20024;-64
2022/04/02 04:06:31;;;;;;;0.93;0.60;;;;;;;;;;5064267;28;20047;-66
2022/04/02 04:08:58;;;;;;;4.93;0.60;;;;;;;;;;5041552;28;20116;-66
2022/04/02 04:11:26;;;;;;;5.35;0.75;;;;;;;;;;5065402;28;20030;-66
2022/04/02 04:13:52;;;;;;;4.13;0.93;;;;;;;;;;5062267;28;20031;-65
2022/04/02 04:16:19;;;;;;;0.90;0.40;;;;;;;;;;5052064;28;20028;-65
2022/04/02 04:18:45;;;;;;;1.38;0.60;;;;;;;;;;5052080;28;20025;-64
2022/04/02 04:21:14;;;;;;;2.30;0.60;;;;;;;;;;5066943;28;20024;-66
2022/04/02 04:23:40;;;;;;;1.92;0.68;;;;;;;;;;5065073;28;20074;-64
2022/04/02 04:26:06;;;;;;;3.80;0.60;;;;;;;;;;5053089;28;20032;-64
2022/04/02 04:28:32;;;;;;;1.67;0.57;;;;;;;;;;5051860;28;20032;-64
2022/04/02 04:30:58;;;;;;;3.35;0.60;;;;;;;;;;5051776;28;20029;-64
2022/04/02 04:33:24;;;;;;;1.70;0.55;;;;;;;;;;5033957;28;20480;-65
2022/04/02 04:35:50;;;;;;;0.88;0.60;;;;;;;;;;5051782;28;20476;-65
2022/04/02 04:38:16;;;;;;;1.60;0.40;;;;;;;;;;5049824;28;20059;-65
2022/04/02 04:40:42;;;;;;;6.70;0.60;;;;;;;;;;5041932;28;20080;-66
2022/04/02 04:43:08;;;;;;;1.60;0.50;;;;;;;;;;5056432;28;20508;-66
2022/04/02 04:45:34;;;;;;;5.20;0.93;;;;;;;;;;5033120;28;20030;-66
2022/04/02 04:48:00;;;;;;;1.95;0.60;;;;;;;;;;5071588;28;20473;-66
2022/04/02 04:50:27;;;;;;;5.93;0.70;;;;;;;;;;5071840;28;20435;-66
2022/04/02 04:52:53;;;;;;;3.03;0.70;;;;;;;;;;5066337;28;20625;-67
2022/04/02 04:55:19;;;;;;;3.63;0.50;;;;;;;;;;5043864;28;20034;-66
2022/04/02 04:57:45;;;;;;;2.30;0.50;;;;;;;;;;5052826;28;20480;-68
2022/04/02 05:00:12;;;;;;;5.30;0.70;;;;;;;;;;5042874;28;20092;-70
2022/04/02 05:02:39;;;;;;;11.48;1.00;;;;;;;;;;5055648;28;20047;-71
2022/04/02 05:05:05;;;;;;;6.32;0.70;;;;;;;;;;5054166;28;20033;-72
2022/04/02 05:07:31;;;;;;;2.88;0.60;;;;;;;;;;5071325;28;20589;-68
2022/04/02 05:09:57;;;;;;;3.10;0.70;;;;;;;;;;5060051;28;20112;-70
2022/04/02 05:12:23;;;;;;;2.42;0.70;;;;;;;;;;5055486;28;20033;-68
2022/04/02 05:14:49;;;;;;;3.95;0.60;;;;;;;;;;5062549;28;20028;-70
2022/04/02 05:17:16;;;;;;;1.88;0.80;;;;;;;;;;5060351;28;20103;-70
2022/04/02 05:19:43;;;;;;;2.72;0.80;;;;;;;;;;5038591;28;20025;-72
2022/04/02 05:22:10;;;;;;;2.90;0.80;;;;;;;;;;5066168;28;20057;-71
2022/04/02 05:24:37;;;;;;;4.20;1.05;;;;;;;;;;5058096;28;20039;-70
2022/04/02 05:27:03;;;;;;;2.72;0.60;;;;;;;;;;5054509;28;20151;-68
2022/04/02 05:29:30;;;;;;;4.53;0.88;;;;;;;;;;5061426;28;20056;-70
2022/04/02 05:31:56;;;;;;;2.38;0.70;;;;;;;;;;5045747;28;20040;-71
2022/04/02 05:34:22;;;;;;;1.33;0.90;;;;;;;;;;5061163;28;20468;-68
2022/04/02 05:36:48;;;;;;;3.33;0.50;;;;;;;;;;5038039;28;20042;-67
2022/04/02 05:39:14;;;;;;;3.20;0.80;;;;;;;;;;5041966;28;20029;-71
2022/04/02 05:41:40;;;;;;;5.60;1.08;;;;;;;;;;5059372;28;20032;-68
2022/04/02 05:44:07;;;;;;;5.00;1.63;;;;;;;;;;5059031;28;20032;-67
2022/04/02 05:46:33;;;;;;;4.85;2.25;;;;;;;;;;5060554;28;20031;-69
2022/04/02 05:48:59;;;;;;;5.82;2.60;;;;;;;;;;5059411;28;20091;-67
2022/04/02 05:51:25;;;;;;;7.60;2.90;;;;;;;;;;5065263;28;20024;-72
2022/04/02 05:53:51;;;;;;;7.78;3.50;;;;;;;;;;5059182;28;20497;-69
2022/04/02 05:56:22;;;;;;;9.63;3.42;;;;;;;;;;5062339;28;20097;-69
2022/04/02 05:58:48;;;;;;;7.70;3.75;;;;;;;;;;5067902;28;20099;-69
2022/04/02 06:01:14;;;;;;;7.30;3.80;;;;;;;;;;5062997;28;20119;-66
2022/04/02 06:03:42;;;;;;;7.78;3.83;;;;;;;;;;5063925;28;20025;-70
2022/04/02 06:06:08;;;;;;;15.05;5.18;;;;;;;;;;5056955;28;20165;-68
2022/04/02 06:08:34;;;;;;;14.45;6.35;;;;;;;;;;5051355;28;20106;-69
2022/04/02 06:11:01;;;;;;;19.00;6.22;;;;;;;;;;5044606;28;20451;-68
2022/04/02 06:13:27;;;;;;;15.43;6.35;;;;;;;;;;5052183;28;20028;-67
2022/04/02 06:15:53;;;;;;;11.75;5.68;;;;;;;;;;5032748;28;20021;-67
2022/04/02 06:18:19;;;;;;;11.93;5.05;;;;;;;;;;5029290;28;20021;-70
2022/04/02 06:20:45;;;;;;;11.80;5.47;;;;;;;;;;5049526;28;20083;-73
2022/04/02 06:23:13;;;;;;;21.02;5.78;;;;;;;;;;5051471;28;20021;-69
2022/04/02 06:25:39;;;;;;;15.27;5.50;;;;;;;;;;5050500;28;20364;-68
2022/04/02 06:28:05;;;;;;;11.30;4.78;;;;;;;;;;5036200;28;20074;-69
2022/04/02 06:30:31;;;;;;;10.93;4.90;;;;;;;;;;5056346;28;20086;-69
2022/04/02 06:32:57;;;;;;;10.38;4.95;;;;;;;;;;5038036;28;20022;-69
2022/04/02 06:35:24;;;;;;;10.35;3.80;;;;;;;;;;5031124;28;20025;-73
2022/04/02 06:37:50;;;;;;;9.10;4.25;;;;;;;;;;5055476;28;20460;-71
2022/04/02 06:40:16;;;;;;;9.73;3.95;;;;;;;;;;5067281;28;20108;-71
2022/04/02 06:42:42;;;;;;;8.63;3.60;;;;;;;;;;5060588;28;20064;-69
2022/04/02 06:45:09;;;;;;;10.98;3.08;;;;;;;;;;5041015;28;20066;-69
2022/04/02 06:47:35;;;;;;;9.77;3.08;;;;;;;;;;5071799;28;20029;-67
2022/04/02 06:50:06;;;;;;;10.85;3.05;;;;;;;;;;5064865;28;20067;-66
2022/04/02 06:52:32;;;;;;;8.93;2.85;;;;;;;;;;5072625;28;20028;-68
2022/04/02 06:54:58;;;;;;;5.82;2.97;;;;;;;;;;5054849;28;20043;-67
2022/04/02 06:57:24;;;;;;;18.67;3.22;;;;;;;;;;5068344;28;20040;-69
2022/04/02 06:59:50;;;;;;;10.80;2.55;;;;;;;;;;5062123;28;20021;-70
2022/04/02 07:02:16;;;;;;;26.95;2.80;;;;;;;;;;5065873;28;20040;-67
2022/04/02 07:04:43;;;;;;;27.48;3.03;;;;;;;;;;5072653;28;20066;-71
2022/04/02 07:07:09;;;;;;;32.78;2.83;;;;;;;;;;5063612;28;20564;-68
2022/04/02 07:09:35;;;;;;;24.25;2.60;;;;;;;;;;5054868;28;20052;-70
2022/04/02 07:12:02;;;;;;;28.85;2.58;;;;;;;;;;5060618;28;20029;-70
2022/04/02 07:14:28;;;;;;;12.27;2.20;;;;;;;;;;5034549;28;20120;-68
2022/04/02 07:16:54;;;;;;;13.43;2.08;;;;;;;;;;5052836;28;20099;-66
2022/04/02 07:19:21;;;;;;;15.43;2.33;;;;;;;;;;5052666;28;20151;-70
2022/04/02 07:21:47;;;;;;;13.80;1.67;;;;;;;;;;5069223;28;20103;-67
2022/04/02 07:24:14;;;;;;;13.23;1.98;;;;;;;;;;5045986;28;20481;-66
2022/04/02 07:26:39;;;;;;;9.15;1.50;;;;;;;;;;5031315;28;20601;-69
2022/04/02 07:29:08;;;;;;;13.52;2.05;;;;;;;;;;5032422;28;20057;-67
2022/04/02 07:31:34;;;;;;;15.15;1.45;;;;;;;;;;5053682;28;20032;-68
2022/04/02 07:34:00;;;;;;;18.70;1.77;;;;;;;;;;5060260;28;20059;-67
2022/04/02 07:36:35;;;;;;;13.88;1.60;;;;;;;;;;5055257;28;20025;-66
2022/04/02 07:39:20;;;;;;;10.70;1.55;;;;;;;;;;5045956;28;20107;-68
2022/04/02 07:42:04;;;;;;;14.57;1.70;;;;;;;;;;5047940;28;20028;-73
2022/04/02 07:44:42;;;;;;;3.83;1.10;;;;;;;;;;5029478;28;20341;-72
2022/04/02 07:47:12;;;;;;;10.75;1.80;;;;;;;;;;5042588;28;20040;-66
2022/04/02 07:49:39;;;;;;;8.40;1.00;;;;;;;;;;5057843;28;20060;-73
2022/04/02 07:52:05;;;;;;;6.13;1.15;;;;;;;;;;5039724;28;20021;-70
2022/04/02 07:54:33;;;;;;;7.82;1.40;;;;;;;;;;5049397;28;20029;-71
2022/04/02 07:57:04;;;;;;;7.32;1.20;;;;;;;;;;5052001;28;20035;-69
2022/04/02 07:59:34;;;;;;;3.90;1.20;;;;;;;;;;5069833;28;20039;-66
2022/04/02 08:02:01;;;;;;;4.22;1.02;;;;;;;;;;5064798;28;20021;-66
2022/04/02 08:04:28;;;;;;;10.80;1.40;;;;;;;;;;5057190;28;20048;-67
2022/04/02 08:06:55;;;;;;;11.70;1.40;;;;;;;;;;5070802;28;20045;-68
2022/04/02 08:09:21;;;;;;;7.50;1.13;;;;;;;;;;5060959;28;20040;-66
2022/04/02 08:11:50;;;;;;;13.82;1.50;;;;;;;;;;5052675;28;20107;-68
2022/04/02 08:14:22;;;;;;;9.98;1.58;;;;;;;;;;5055085;28;20041;-65
2022/04/02 08:16:48;;;;;;;11.02;1.42;;;;;;;;;;5064114;28;20174;-67
2022/04/02 08:19:14;;;;;;;20.67;1.60;;;;;;;;;;5057969;28;20025;-69
2022/04/02 08:21:40;;;;;;;34.20;2.00;;;;;;;;;;5069397;28;20043;-66
2022/04/02 08:24:06;;;;;;;29.50;1.58;;;;;;;;;;5058641;28;20040;-66
2022/04/02 08:26:40;;;;;;;24.52;1.75;;;;;;;;;;5067047;28;20096;-66
2022/04/02 08:29:29;;;;;;;22.30;1.52;;;;;;;;;;5058461;28;20029;-69
2022/04/02 08:31:56;;;;;;;25.40;1.90;;;;;;;;;;5046665;28;20040;-68
2022/04/02 08:34:25;;;;;;;17.70;1.35;;;;;;;;;;5065796;28;20044;-66
2022/04/02 08:37:23;;;;;;;51.78;2.92;;;;;;;;;;5049776;28;20031;-70
2022/04/02 08:39:49;;;;;;;16.05;1.63;;;;;;;;;;5000443;28;20045;-70
2022/04/02 08:42:26;;;;;;;15.75;1.75;;;;;;;;;;5038868;28;20113;-67
2022/04/02 08:44:52;;;;;;;15.50;1.15;;;;;;;;;;5040704;28;20120;-68
2022/04/02 08:47:44;;;;;;;21.45;1.60;;;;;;;;;;5062892;28;20152;-67
2022/04/02 08:50:17;;;;;;;17.55;1.67;;;;;;;;;;5063639;28;20036;-66
2022/04/02 08:52:43;;;;;;;18.33;1.20;;;;;;;;;;5070002;28;20033;-67
2022/04/02 08:55:12;;;;;;;11.82;1.23;;;;;;;;;;5046903;28;20045;-66
2022/04/02 08:57:49;;;;;;;10.88;1.33;;;;;;;;;;5063243;28;20049;-67
2022/04/02 09:00:16;;;;;;;12.00;1.10;;;;;;;;;;5049824;28;20087;-68
2022/04/02 09:03:03;;;;;;;13.32;1.70;;;;;;;;;;5029043;28;20025;-67
2022/04/02 09:05:29;;;;;;;6.15;1.20;;;;;;;;;;5050325;28;20028;-68
2022/04/02 09:08:04;;;;;;;11.02;1.30;;;;;;;;;;5055418;28;20451;-71
2022/04/02 09:10:39;;;;;;;13.60;1.65;;;;;;;;;;5056583;28;20650;-71
2022/04/02 09:13:23;;;;;;;10.38;2.13;;;;;;;;;;5060434;28;20020;-69
2022/04/02 09:16:01;;;;;;;7.22;2.00;;;;;;;;;;5047062;28;20080;-69
2022/04/02 09:18:30;;;;;;;15.20;2.20;;;;;;;;;;5059681;28;20051;-67
2022/04/02 09:21:17;;;;;;;11.80;2.58;;;;;;;;;;5054417;28;20025;-67
2022/04/02 09:23:44;;;;;;;13.70;2.20;;;;;;;;;;5041784;28;20044;-67
2022/04/02 09:26:23;;;;;;;5.63;2.28;;;;;;;;;;5057691;28;20032;-66
2022/04/02 09:29:08;;;;;;;6.07;2.50;;;;;;;;;;5056970;28;20037;-66
2022/04/02 09:31:44;;;;;;;10.93;2.65;;;;;;;;;;5070118;28;20102;-67
2022/04/02 09:34:16;;;;;;;14.13;2.35;;;;;;;;;;5066185;28;20808;-68
2022/04/02 09:37:05;;;;;;;15.17;2.30;;;;;;;;;;5042215;28;20040;-69
2022/04/02 09:39:40;;;;;;;16.10;2.95;;;;;;;;;;5033955;28;20560;-67
2022/04/02 09:42:33;;;;;;;12.40;3.13;;;;;;;;;;5050949;28;20032;-68
2022/04/02 09:45:09;;;;;;;16.15;2.45;;;;;;;;;;5046199;28;20479;-67
2022/04/02 09:47:54;;;;;;;10.85;1.90;;;;;;;;;;5050940;28;20453;-70
2022/04/02 09:50:24;;;;;;;8.77;2.33;;;;;;;;;;5063538;28;20690;-67
2022/04/02 09:52:55;;;;;;;8.27;1.80;;;;;;;;;;5062448;28;20405;-66
2022/04/02 09:55:22;;;;;;;4.50;1.75;;;;;;;;;;5048501;28;20029;-68
2022/04/02 09:58:07;;;;;;;12.38;1.67;;;;;;;;;;5049031;28;20642;-67
2022/04/02 10:00:56;;;;;;;11.13;1.48;;;;;;;;;;5035123;28;20040;-66
2022/04/02 10:03:33;;;;;;;5.45;1.63;;;;;;;;;;5049901;28;20091;-66
2022/04/02 10:06:05;;;;;;;9.75;2.03;;;;;;;;;;5037966;28;20037;-70
2022/04/02 10:08:31;;;;;;;37.58;2.53;;;;;;;;;;5029273;28;20036;-73
2022/04/02 10:11:00;;;;;;;56.55;2.83;;;;;;;;;;5038306;28;20741;-69
2022/04/02 10:13:28;;;;;;;80.47;3.58;;;;;;;;;;5036597;28;20537;-69
2022/04/02 10:15:55;;;;;;;57.28;2.65;;;;;;;;;;5070950;28;20029;-67
2022/04/02 10:18:23;;;;;;;63.35;3.78;;;;;;;;;;5073935;28;20035;-70
2022/04/02 10:20:50;;;;;;;36.28;2.75;;;;;;;;;;5073388;28;20078;-69
2022/04/02 10:23:19;;;;;;;59.72;2.28;;;;;;;;;;5062850;28;20035;-69
2022/04/02 10:26:08;;;;;;;54.45;3.58;;;;;;;;;;5065964;28;20032;-66
2022/04/02 10:28:46;;;;;;;58.83;2.67;;;;;;;;;;5053783;28;20068;-65
2022/04/02 10:31:16;;;;;;;62.80;3.88;;;;;;;;;;5066324;28;20079;-70
2022/04/02 10:33:45;;;;;;;52.10;3.15;;;;;;;;;;5068551;28;20037;-67
2022/04/02 10:36:11;;;;;;;54.47;3.08;;;;;;;;;;5070167;28;20055;-68
2022/04/02 10:38:37;;;;;;;36.95;2.80;;;;;;;;;;5033259;28;20030;-69
2022/04/02 10:41:09;;;;;;;48.08;3.15;;;;;;;;;;5032971;28;20029;-68
2022/04/02 10:43:37;;;;;;;33.67;2.53;;;;;;;;;;5054896;28;20056;-67
2022/04/02 10:46:03;;;;;;;28.30;1.55;;;;;;;;;;5041639;28;20108;-69
2022/04/02 10:48:38;;;;;;;15.43;1.60;;;;;;;;;;5055994;28;20028;-69
2022/04/02 10:51:07;;;;;;;11.65;1.40;;;;;;;;;;5060090;28;20021;-74
2022/04/02 10:53:35;;;;;;;19.05;1.35;;;;;;;;;;5056680;28;20031;-72
2022/04/02 10:56:04;;;;;;;18.65;1.38;;;;;;;;;;5055613;28;20049;-69
2022/04/02 10:58:35;;;;;;;28.23;2.20;;;;;;;;;;5062643;28;20029;-71
2022/04/02 11:01:03;;;;;;;35.92;2.15;;;;;;;;;;5040255;28;20761;-69
2022/04/02 11:03:40;;;;;;;31.30;2.00;;;;;;;;;;5057706;28;20111;-71
2022/04/02 11:06:09;;;;;;;31.75;2.35;;;;;;;;;;5059626;28;20119;-68
2022/04/02 11:08:35;;;;;;;22.48;2.10;;;;;;;;;;5058928;28;20032;-68
2022/04/02 11:11:20;;;;;;;21.30;2.30;;;;;;;;;;5055548;28;20032;-67
2022/04/02 11:13:46;;;;;;;18.48;1.70;;;;;;;;;;5047311;28;20056;-69
2022/04/02 11:16:16;;;;;;;7.93;1.52;;;;;;;;;;5038906;28;20025;-72
2022/04/02 11:19:53;;;;;;;13.95;1.70;;;;;;;;;;5057171;28;20033;-78
2022/04/02 11:21:35;;;;;;;16.02;1.35;;;;;;;;;;5055021;28;20336;-68
2022/04/02 11:24:02;;;;;;;9.75;1.50;;;;;;;;;;5049494;28;20063;-68
2022/04/02 11:26:29;;;;;;;14.77;1.67;;;;;;;;;;5053071;28;20056;-67
2022/04/02 11:28:56;;;;;;;9.25;1.20;;;;;;;;;;5052660;28;20060;-68
2022/04/02 11:31:29;;;;;;;12.00;1.35;;;;;;;;;;5055178;28;20056;-66
2022/04/02 11:33:55;;;;;;;;;;;;;;;;;;5055284;28;20445;-67
2022/04/02 11:36:39;;;;;;;10.13;1.17;;;;;;;;;;5059722;28;19905;-68
2022/04/02 11:39:10;;;;;;;9.05;1.23;;;;;;;;;;5035589;28;20021;-68
2022/04/02 11:41:38;;;;;;;6.15;0.90;;;;;;;;;;5055225;28;20021;-68
2022/04/02 11:44:11;;;;;;;5.45;1.35;;;;;;;;;;5056203;28;20070;-67
2022/04/02 11:46:51;;;;;;;2.35;0.95;;;;;;;;;;5053614;28;20044;-69
2022/04/02 11:49:29;;;;;;;3.97;1.25;;;;;;;;;;5045657;28;20041;-65
2022/04/02 11:52:05;;;;;;;2.30;1.00;;;;;;;;;;5032217;28;20713;-69
2022/04/02 11:54:32;;;;;;;4.47;1.00;;;;;;;;;;5032608;28;20029;-67
2022/04/02 11:57:11;;;;;;;5.00;0.95;;;;;;;;;;5038574;28;20120;-68
2022/04/02 11:59:37;;;;;;;1.95;0.95;;;;;;;;;;5030606;28;20025;-67
2022/04/02 12:02:04;;;;;;;3.45;0.98;;;;;;;;;;5065545;28;20494;-65
2022/04/02 12:04:31;;;;;;;1.52;0.88;;;;;;;;;;5066116;28;20058;-69
2022/04/02 12:07:05;;;;;;;3.95;0.82;;;;;;;;;;5053400;28;20132;-68
2022/04/02 12:09:31;;;;;;;6.88;1.10;;;;;;;;;;5073999;28;20119;-68
2022/04/02 12:12:04;;;;;;;26.55;2.10;;;;;;;;;;5067029;28;20041;-66
2022/04/02 12:14:31;;;;;;;37.35;2.83;;;;;;;;;;5050645;28;20032;-66
2022/04/02 12:17:02;;;;;;;46.35;2.90;;;;;;;;;;5067711;28;20032;-68
2022/04/02 12:19:42;;;;;;;43.50;2.53;;;;;;;;;;5063292;28;20123;-68
2022/04/02 12:22:21;;;;;;;12.68;1.55;;;;;;;;;;5051082;28;20511;-66
2022/04/02 12:24:48;;;;;;;13.98;1.40;;;;;;;;;;5033430;28;20038;-67
2022/04/02 12:27:21;;;;;;;25.15;1.65;;;;;;;;;;5055696;28;20111;-67
2022/04/02 12:29:48;;;;;;;14.25;1.33;;;;;;;;;;5041055;28;20864;-68
2022/04/02 12:32:29;;;;;;;22.45;1.52;;;;;;;;;;5059711;28;20021;-71
2022/04/02 12:35:06;;;;;;;12.70;1.40;;;;;;;;;;5061829;28;20028;-70
2022/04/02 12:37:40;;;;;;;15.05;1.30;;;;;;;;;;5062551;28;20530;-72
2022/04/02 12:40:25;;;;;;;13.95;1.50;;;;;;;;;;5057957;28;20021;-70
2022/04/02 12:42:53;;;;;;;16.42;1.77;;;;;;;;;;5051220;28;20060;-69
2022/04/02 12:45:21;;;;;;;22.77;1.38;;;;;;;;;;5054073;28;20037;-69
2022/04/02 12:47:58;;;;;;;15.82;1.65;;;;;;;;;;5058334;28;20070;-69
2022/04/02 12:50:27;;;;;;;18.95;1.58;;;;;;;;;;5053269;28;20482;-69
2022/04/02 12:52:53;;;;;;;9.27;1.30;;;;;;;;;;5050712;28;20024;-68
2022/04/02 12:55:21;;;;;;;9.57;1.20;;;;;;;;;;5053454;28;20630;-71
2022/04/02 12:57:57;;;;;;;5.90;1.10;;;;;;;;;;5027596;28;20030;-71
2022/04/02 13:00:27;;;;;;;29.42;1.38;;;;;;;;;;5057848;28;20589;-68
2022/04/02 13:02:57;;;;;;;13.23;1.25;;;;;;;;;;5054915;28;20021;-69
2022/04/02 13:05:25;;;;;;;20.63;1.60;;;;;;;;;;5032672;28;20132;-65
2022/04/02 13:08:03;;;;;;;6.18;1.10;;;;;;;;;;5058188;28;20056;-68
2022/04/02 13:10:29;;;;;;;13.43;1.60;;;;;;;;;;5046064;28;20072;-68
2022/04/02 13:12:57;;;;;;;13.05;1.00;;;;;;;;;;5050046;28;20663;-67
2022/04/02 13:15:24;;;;;;;25.25;1.70;;;;;;;;;;5031417;28;20125;-69
2022/04/02 13:20:28;;;;;;;10.00;1.20;;;;;;;;;;5049386;28;20021;-69
2022/04/02 13:20:40;;;;;;;15.93;1.25;;;;;;;;;;5051213;28;20067;-69
2022/04/02 13:23:07;;;;;;;12.43;1.20;;;;;;;;;;5061333;28;20033;-67
2022/04/02 13:25:34;;;;;;;14.13;1.30;;;;;;;;;;5064408;28;20036;-67
2022/04/02 13:28:30;;;;;;;15.77;1.48;;;;;;;;;;5055396;28;20060;-66
2022/04/02 13:31:00;;;;;;;12.20;1.30;;;;;;;;;;5015474;28;20053;-67
2022/04/02 13:33:45;;;;;;;12.82;1.00;;;;;;;;;;5046065;28;20032;-68
2022/04/02 13:36:30;;;;;;;6.97;1.20;;;;;;;;;;5051482;28;20037;-66
2022/04/02 13:38:55;;;;;;;11.50;1.02;;;;;;;;;;5046154;28;20479;-68
2022/04/02 13:41:25;;;;;;;8.00;1.50;;;;;;;;;;5039252;28;20028;-65
2022/04/02 13:43:53;;;;;;;3.53;0.90;;;;;;;;;;5071937;28;20044;-70
2022/04/02 13:46:22;;;;;;;4.32;1.10;;;;;;;;;;5046908;28;20020;-67
2022/04/02 13:48:57;;;;;;;6.72;1.10;;;;;;;;;;5066621;28;20040;-66
2022/04/02 13:51:37;;;;;;;4.50;0.90;;;;;;;;;;5050769;28;20113;-65
2022/04/02 13:54:04;;;;;;;3.70;0.93;;;;;;;;;;5047263;28;20029;-68
2022/04/02 13:56:34;;;;;;;8.45;1.00;;;;;;;;;;5050598;28;20041;-70
2022/04/02 13:59:01;;;;;;;12.30;0.80;;;;;;;;;;5062896;28;20028;-68
2022/04/02 14:01:29;;;;;;;6.57;1.10;;;;;;;;;;5047934;28;20033;-69
2022/04/02 14:04:06;;;;;;;4.07;1.10;;;;;;;;;;5049232;28;20025;-69
2022/04/02 14:06:33;;;;;;;7.57;0.80;;;;;;;;;;5050316;28;20080;-71
2022/04/02 14:09:02;;;;;;;4.82;0.88;;;;;;;;;;5061051;28;20073;-65
2022/04/02 14:11:34;;;;;;;1.75;0.65;;;;;;;;;;5060678;28;20041;-66
2022/04/02 14:14:00;;;;;;;0.95;0.63;;;;;;;;;;5054192;28;20059;-68
2022/04/02 14:16:31;;;;;;;6.95;1.00;;;;;;;;;;5036513;28;20026;-68
2022/04/02 14:19:00;;;;;;;1.27;0.60;;;;;;;;;;5064006;28;20437;-64
2022/04/02 14:21:29;;;;;;;8.10;0.88;;;;;;;;;;5058064;28;20032;-68
2022/04/02 14:24:07;;;;;;;2.03;0.90;;;;;;;;;;5043100;28;20026;-66
2022/04/02 14:26:39;;;;;;;1.90;0.88;;;;;;;;;;5057018;28;20039;-70
2022/04/02 14:29:05;;;;;;;2.08;0.88;;;;;;;;;;5053193;28;20064;-66
2022/04/02 14:31:47;;;;;;;1.52;0.50;;;;;;;;;;5056877;28;20056;-69
2022/04/02 14:34:32;;;;;;;3.65;0.98;;;;;;;;;;5060155;28;20074;-65
2022/04/02 14:37:16;;;;;;;3.88;0.70;;;;;;;;;;5058363;28;20046;-66
2022/04/02 14:39:53;;;;;;;1.33;0.65;;;;;;;;;;5053650;28;20385;-64
2022/04/02 14:42:34;;;;;;;2.35;0.77;;;;;;;;;;5043025;28;21246;-68
2022/04/02 14:45:06;;;;;;;3.13;0.77;;;;;;;;;;5061896;28;20021;-67
2022/04/02 14:47:51;;;;;;;3.42;0.90;;;;;;;;;;5056766;28;20052;-69
2022/04/02 14:50:35;;;;;;;4.00;0.80;;;;;;;;;;5049691;28;20060;-67
2022/04/02 14:53:24;;;;;;;6.97;0.90;;;;;;;;;;5040415;28;20444;-66
2022/04/02 14:56:08;;;;;;;3.88;1.00;;;;;;;;;;5029631;28;20017;-68
2022/04/02 14:58:53;;;;;;;1.63;0.80;;;;;;;;;;5061572;28;20088;-67
2022/04/02 15:01:44;;;;;;;5.13;0.80;;;;;;;;;;5052951;28;20585;-66